MSC Cordoba — A8OF8 — position and weather

sailwx.info

Track history (hours):
 
Tides and Currents Weather Stations Pressure Air Temp Water Temp Dewpoint Dewpoint Depression Visibility Wind Speed Wind Dir Waves Ship Positions

MSC Cordoba

Last reported at 2016-Sep-28 08:33 UTC. Time now 2016-Sep-28 17:09 UTC.
Position N 36°24' W 008°35'.

Length 274 m; draft 11.1 m.

Type: Ship (hazmat cat A). MMSI: 636091473.

Date/timePositionNaut miles runAvg speedWind from/ knotsBaromVisibWave heightAir tempDewpointWater temp
2016-Sep-28 08:33N 36°24' W 008°35'9619.3
2016-Sep-28 03:33N 37°39' W 009°51'2221.7
2016-Sep-28 02:33N 38°00' W 009°56'2221.7
2016-Sep-28 01:33N 38°21' W 010°03'4422.0
2016-Sep-27 23:33N 39°05' W 010°07'71719.9
2016-Sep-26 11:33N 49°57' W 003°10'18720.7
2016-Sep-26 02:33N 51°03' E 001°25'2020.3
2016-Sep-26 01:33N 51°17' E 001°48'1414.0
2016-Sep-26 00:34N 51°23' E 002°08'4214.1
2016-Sep-25 21:34N 51°25' E 003°16'36 8.9
2016-Sep-25 17:32N 51°23' E 004°13'4 3.8
2016-Sep-25 16:33N 51°21' E 004°17'0 0.0
2016-Sep-25 15:33N 51°21' E 004°17'2 2.2
2016-Sep-25 14:34N 51°20' E 004°20'0 0.1
2016-Sep-25 12:29N 51°20' E 004°21'0 0.0
2016-Sep-25 11:31N 51°20' E 004°21'0 0.0
2016-Sep-25 10:28N 51°20' E 004°21'0 0.0
2016-Sep-25 09:30N 51°20' E 004°21'0 0.0
2016-Sep-25 07:29N 51°20' E 004°21'0 0.0
2016-Sep-25 04:31N 51°20' E 004°21'0 0.0
2016-Sep-25 00:32N 51°20' E 004°21'0 0.0
2016-Sep-24 22:31N 51°20' E 004°21'0 0.0
2016-Sep-24 21:31N 51°20' E 004°21'0 0.0
2016-Sep-24 19:33N 51°20' E 004°21'0 0.0
2016-Sep-24 18:33N 51°20' E 004°21'0 0.0
2016-Sep-24 17:32N 51°20' E 004°21'0 0.0
2016-Sep-24 16:26N 51°20' E 004°21'0 0.0
2016-Sep-24 14:31N 51°20' E 004°21'0 0.0
2016-Sep-24 12:33N 51°20' E 004°21'0 0.0
2016-Sep-24 10:32N 51°20' E 004°21'0 0.0
2016-Sep-24 09:32N 51°20' E 004°21'13 2.2
2016-Sep-24 03:33N 51°25' E 004°02'1010.0
2016-Sep-24 02:33N 51°21' E 003°47'1010.4
2016-Sep-24 01:33N 51°25' E 003°32'1414.5
2016-Sep-24 00:33N 51°24' E 003°09'5510.9
2016-Sep-23 19:34N 51°41' E 001°45'2110.3
2016-Sep-23 17:33N 51°56' E 001°21'2 1.9
2016-Sep-23 16:33N 51°57' E 001°19'0 0.0
2016-Sep-23 15:32N 51°57' E 001°19'0 0.0
2016-Sep-23 13:31N 51°57' E 001°19'0 0.0
2016-Sep-23 09:30N 51°57' E 001°19'0 0.0
2016-Sep-23 06:31N 51°57' E 001°19'0 0.0
2016-Sep-23 04:34N 51°57' E 001°19'0 0.0
2016-Sep-23 03:33N 51°57' E 001°19'0 0.0
2016-Sep-23 02:33N 51°57' E 001°19'0 0.0
2016-Sep-23 01:32N 51°57' E 001°19'0 0.0
2016-Sep-23 00:32N 51°57' E 001°19'0 0.0
2016-Sep-22 23:31N 51°57' E 001°19'0 0.0
2016-Sep-22 20:33N 51°57' E 001°19'7 0.9
2016-Sep-22 12:34N 51°56' E 001°30'8 1.0
2016-Sep-22 04:33N 51°56' E 001°43'3 3.3
2016-Sep-22 03:33N 51°56' E 001°48'3411.3
2016-Sep-22 00:33N 51°22' E 001°44'1211.6
2016-Sep-21 23:33N 51°11' E 001°39'8 8.4
2016-Sep-21 22:33N 51°03' E 001°35'6611.0
2016-Sep-21 16:33N 50°21' E 000°16'64 9.2
2016-Sep-21 09:34N 50°03' W 001°20'2019.4
2016-Sep-21 08:33N 49°58' W 001°50'5117.0
2016-Sep-21 05:33N 49°43' W 003°06'61615.0
2016-Sep-19 12:33N 40°37' W 009°49'1716.2
2016-Sep-19 11:32N 40°20' W 009°50'3216.1
2016-Sep-19 09:33N 39°48' W 009°52'3517.3
2016-Sep-19 07:33N 39°14' W 009°53'1717.3
2016-Sep-19 06:33N 38°57' W 009°52'4916.3
2016-Sep-19 03:33N 38°08' W 009°42'1616.2
2016-Sep-19 02:33N 37°53' W 009°37'3316.5
2016-Sep-19 00:33N 37°20' W 009°28'7314.6
2016-Sep-18 19:33N 36°33' W 008°19'15417.1
2016-Sep-18 10:33N 36°02' W 005°12'  
Track history (hours):
 
Tides and Currents Weather Stations Pressure Air Temp Water Temp Dewpoint Dewpoint Depression Visibility Wind Speed Wind Dir Waves Ship Positions

MSC Cordoba

Last reported at 2016-Sep-28 08:33 UTC. Time now 2016-Sep-28 17:09 UTC.
Position N 36°24' W 008°35'.

Length 274 m; draft 11.1 m.

Type: Ship (hazmat cat A). MMSI: 636091473.

Date/timePositionNaut miles runAvg speedWind from/ knotsBaromVisibWave heightAir tempDewpointWater temp
2016-Sep-28 08:33N 36°24' W 008°35'9619.3
2016-Sep-28 03:33N 37°39' W 009°51'2221.7
2016-Sep-28 02:33N 38°00' W 009°56'2221.7
2016-Sep-28 01:33N 38°21' W 010°03'4422.0
2016-Sep-27 23:33N 39°05' W 010°07'71719.9
2016-Sep-26 11:33N 49°57' W 003°10'18720.7
2016-Sep-26 02:33N 51°03' E 001°25'2020.3
2016-Sep-26 01:33N 51°17' E 001°48'1414.0
2016-Sep-26 00:34N 51°23' E 002°08'4214.1
2016-Sep-25 21:34N 51°25' E 003°16'36 8.9
2016-Sep-25 17:32N 51°23' E 004°13'4 3.8
2016-Sep-25 16:33N 51°21' E 004°17'0 0.0
2016-Sep-25 15:33N 51°21' E 004°17'2 2.2
2016-Sep-25 14:34N 51°20' E 004°20'0 0.1
2016-Sep-25 12:29N 51°20' E 004°21'0 0.0
2016-Sep-25 11:31N 51°20' E 004°21'0 0.0
2016-Sep-25 10:28N 51°20' E 004°21'0 0.0
2016-Sep-25 09:30N 51°20' E 004°21'0 0.0
2016-Sep-25 07:29N 51°20' E 004°21'0 0.0
2016-Sep-25 04:31N 51°20' E 004°21'0 0.0
2016-Sep-25 00:32N 51°20' E 004°21'0 0.0
2016-Sep-24 22:31N 51°20' E 004°21'0 0.0
2016-Sep-24 21:31N 51°20' E 004°21'0 0.0
2016-Sep-24 19:33N 51°20' E 004°21'0 0.0
2016-Sep-24 18:33N 51°20' E 004°21'0 0.0
2016-Sep-24 17:32N 51°20' E 004°21'0 0.0
2016-Sep-24 16:26N 51°20' E 004°21'0 0.0
2016-Sep-24 14:31N 51°20' E 004°21'0 0.0
2016-Sep-24 12:33N 51°20' E 004°21'0 0.0
2016-Sep-24 10:32N 51°20' E 004°21'0 0.0
2016-Sep-24 09:32N 51°20' E 004°21'13 2.2
2016-Sep-24 03:33N 51°25' E 004°02'1010.0
2016-Sep-24 02:33N 51°21' E 003°47'1010.4
2016-Sep-24 01:33N 51°25' E 003°32'1414.5
2016-Sep-24 00:33N 51°24' E 003°09'5510.9
2016-Sep-23 19:34N 51°41' E 001°45'2110.3
2016-Sep-23 17:33N 51°56' E 001°21'2 1.9
2016-Sep-23 16:33N 51°57' E 001°19'0 0.0
2016-Sep-23 15:32N 51°57' E 001°19'0 0.0
2016-Sep-23 13:31N 51°57' E 001°19'0 0.0
2016-Sep-23 09:30N 51°57' E 001°19'0 0.0
2016-Sep-23 06:31N 51°57' E 001°19'0 0.0
2016-Sep-23 04:34N 51°57' E 001°19'0 0.0
2016-Sep-23 03:33N 51°57' E 001°19'0 0.0
2016-Sep-23 02:33N 51°57' E 001°19'0 0.0
2016-Sep-23 01:32N 51°57' E 001°19'0 0.0
2016-Sep-23 00:32N 51°57' E 001°19'0 0.0
2016-Sep-22 23:31N 51°57' E 001°19'0 0.0
2016-Sep-22 20:33N 51°57' E 001°19'7 0.9
2016-Sep-22 12:34N 51°56' E 001°30'8 1.0
2016-Sep-22 04:33N 51°56' E 001°43'3 3.3
2016-Sep-22 03:33N 51°56' E 001°48'3411.3
2016-Sep-22 00:33N 51°22' E 001°44'1211.6
2016-Sep-21 23:33N 51°11' E 001°39'8 8.4
2016-Sep-21 22:33N 51°03' E 001°35'6611.0
2016-Sep-21 16:33N 50°21' E 000°16'64 9.2
2016-Sep-21 09:34N 50°03' W 001°20'2019.4
2016-Sep-21 08:33N 49°58' W 001°50'5117.0
2016-Sep-21 05:33N 49°43' W 003°06'61615.0
2016-Sep-19 12:33N 40°37' W 009°49'1716.2
2016-Sep-19 11:32N 40°20' W 009°50'3216.1
2016-Sep-19 09:33N 39°48' W 009°52'3517.3
2016-Sep-19 07:33N 39°14' W 009°53'1717.3
2016-Sep-19 06:33N 38°57' W 009°52'4916.3
2016-Sep-19 03:33N 38°08' W 009°42'1616.2
2016-Sep-19 02:33N 37°53' W 009°37'3316.5
2016-Sep-19 00:33N 37°20' W 009°28'7314.6
2016-Sep-18 19:33N 36°33' W 008°19'15417.1
2016-Sep-18 10:33N 36°02' W 005°12'  

Dump ship's entire track history